Time;durP1;ratioP1;P1;durP2;ratioP2;P2;SDS_P1;SDS_P2;PMS_P1;PMS_P2;Temp;Humidity;BMP_temperature;BMP_pressure;BME280_temperature;BME280_humidity;BME280_pressure;Samples;Min_cycle;Max_cycle;Signal;HPM_P1;HPM_P2
2021/08/19 00:01:07;;;;;;;25.65;12.33;;;;;;;20.09;100.00;100142.56;1754311;81;20929;-82
2021/08/19 00:03:33;;;;;;;27.15;12.93;;;;;;;20.05;100.00;100141.64;1746072;81;21070;-82
2021/08/19 00:05:59;;;;;;;32.42;13.60;;;;;;;20.01;100.00;100141.52;1763791;80;21011;-81
2021/08/19 00:08:25;;;;;;;31.23;14.53;;;;;;;20.00;100.00;100140.47;1754318;81;20878;-84
2021/08/19 00:10:51;;;;;;;28.05;13.75;;;;;;;19.97;100.00;100141.93;1754337;80;20940;-82
2021/08/19 00:13:17;;;;;;;33.78;13.48;;;;;;;19.93;100.00;100141.80;1708971;81;20874;-85
2021/08/19 00:15:43;;;;;;;26.57;13.00;;;;;;;19.91;100.00;100146.83;1754385;81;21587;-83
2021/08/19 00:18:09;;;;;;;32.95;13.72;;;;;;;19.90;100.00;100146.58;1754651;80;20969;-83
2021/08/19 00:20:35;;;;;;;27.67;12.35;;;;;;;19.84;100.00;100141.65;1754134;81;20870;-82
2021/08/19 00:23:01;;;;;;;30.30;12.90;;;;;;;19.81;100.00;100136.84;1754426;81;21319;-81
2021/08/19 00:25:29;;;;;;;30.00;12.47;;;;;;;19.80;100.00;100136.05;1753843;81;20989;-77
2021/08/19 00:27:55;;;;;;;29.35;12.50;;;;;;;19.77;100.00;100135.35;1754187;81;21128;-80
2021/08/19 00:30:21;;;;;;;30.55;13.68;;;;;;;19.77;100.00;100139.45;1754379;81;20986;-80
2021/08/19 00:32:47;;;;;;;26.90;12.63;;;;;;;19.71;100.00;100138.84;1754267;81;21572;-79
2021/08/19 00:35:13;;;;;;;28.45;13.32;;;;;;;19.69;100.00;100143.83;1754277;81;20878;-82
2021/08/19 00:37:39;;;;;;;31.73;14.45;;;;;;;19.68;100.00;100142.25;1754196;81;20862;-81
2021/08/19 00:40:07;;;;;;;26.60;12.07;;;;;;;19.67;100.00;100132.99;1753718;81;21136;-83
2021/08/19 00:42:35;;;;;;;27.20;12.68;;;;;;;19.64;100.00;100130.89;1753811;81;20977;-80
2021/08/19 00:45:01;;;;;;;30.55;13.00;;;;;;;19.61;100.00;100127.45;1754096;81;20993;-82
2021/08/19 00:47:30;;;;;;;35.30;14.30;;;;;;;19.59;100.00;100127.80;1753820;81;21068;-78
2021/08/19 00:50:02;;;;;;;32.53;13.88;;;;;;;19.58;100.00;100124.81;1753992;81;20992;-80
2021/08/19 00:52:30;;;;;;;29.75;13.32;;;;;;;19.61;100.00;100123.36;1751306;81;21083;-78
2021/08/19 00:54:56;;;;;;;30.57;12.95;;;;;;;19.62;100.00;100124.95;1753841;81;21535;-86
2021/08/19 00:57:22;;;;;;;32.28;14.78;;;;;;;19.60;100.00;100125.30;1753802;81;21087;-81
2021/08/19 00:59:52;;;;;;;27.85;13.65;;;;;;;19.58;100.00;100124.81;1754476;81;21158;-82
2021/08/19 01:02:16;;;;;;;27.87;13.58;;;;;;;19.55;100.00;100124.11;1758341;81;20933;-79
2021/08/19 01:04:42;;;;;;;35.58;14.28;;;;;;;19.57;100.00;100120.49;1753922;81;21736;-81
2021/08/19 01:07:09;;;;;;;30.25;13.58;;;;;;;19.58;100.00;100125.39;1754024;81;21025;-80
2021/08/19 01:09:35;;;;;;;29.55;13.65;;;;;;;19.57;100.00;100132.00;1754032;81;20977;-79
2021/08/19 01:12:05;;;;;;;31.77;14.90;;;;;;;19.56;100.00;100127.10;1754151;81;21537;-82
2021/08/19 01:14:33;;;;;;;27.15;13.00;;;;;;;19.55;100.00;100121.95;1754108;81;21111;-80
2021/08/19 01:17:08;;;;;;;27.85;13.95;;;;;;;19.56;100.00;100127.64;1754193;81;21052;-80
2021/08/19 01:19:34;;;;;;;37.13;15.00;;;;;;;19.58;100.00;100128.13;1740398;82;22887;-81
2021/08/19 01:22:01;;;;;;;30.08;14.35;;;;;;;19.57;100.00;100130.06;1743968;82;21447;-81
2021/08/19 01:24:27;;;;;;;33.10;14.25;;;;;;;19.55;100.00;100128.78;1743585;82;21073;-82
2021/08/19 01:26:54;;;;;;;33.55;15.72;;;;;;;19.52;100.00;100128.31;1743978;82;20884;-82
2021/08/19 01:29:20;;;;;;;35.25;14.95;;;;;;;19.51;100.00;100126.72;1718845;82;21081;-82
2021/08/19 01:32:02;;;;;;;34.95;14.90;;;;;;;19.49;100.00;100126.23;1743923;82;20876;-85
2021/08/19 01:34:29;;;;;;;30.60;14.33;;;;;;;19.49;100.00;100128.17;1744459;82;21019;-82
2021/08/19 01:36:56;;;;;;;28.67;14.15;;;;;;;19.45;100.00;100126.68;1746666;82;21539;-78
2021/08/19 01:39:23;;;;;;;33.00;14.25;;;;;;;19.42;100.00;100128.70;1743672;82;20999;-81
2021/08/19 01:41:49;;;;;;;27.50;13.62;;;;;;;19.44;100.00;100126.99;1744110;82;21094;-81
2021/08/19 01:44:17;;;;;;;45.55;15.93;;;;;;;19.44;100.00;100126.99;1744055;82;21070;-82
2021/08/19 01:46:43;;;;;;;35.52;16.80;;;;;;;19.41;100.00;100133.95;1743903;82;21075;-82
2021/08/19 01:49:09;;;;;;;31.82;15.53;;;;;;;19.41;100.00;100133.13;1744033;82;20908;-79
2021/08/19 01:51:35;;;;;;;35.92;15.13;;;;;;;19.46;100.00;100134.30;1744089;82;21003;-81
2021/08/19 01:54:02;;;;;;;32.20;15.83;;;;;;;19.50;100.00;100136.06;1744123;82;21901;-82
2021/08/19 01:56:28;;;;;;;38.58;15.55;;;;;;;19.54;100.00;100134.83;1743910;82;21589;-79
2021/08/19 01:58:57;;;;;;;33.20;15.85;;;;;;;19.58;100.00;100126.75;1744134;82;20955;-81
2021/08/19 02:01:26;;;;;;;31.65;15.38;;;;;;;19.63;100.00;100131.47;1739762;82;21008;-81
2021/08/19 02:03:54;;;;;;;30.65;14.87;;;;;;;19.67;100.00;100131.63;1743615;82;21558;-78
2021/08/19 02:06:20;;;;;;;31.62;14.73;;;;;;;19.68;100.00;100138.72;1743861;82;21917;-81
2021/08/19 02:08:47;;;;;;;33.23;15.35;;;;;;;19.66;100.00;100135.50;1744038;82;21007;-79
2021/08/19 02:11:14;;;;;;;34.70;16.52;;;;;;;19.65;100.00;100129.81;1743735;82;21043;-80
2021/08/19 02:13:41;;;;;;;28.80;15.40;;;;;;;19.66;100.00;100127.30;1744178;82;21023;-81
2021/08/19 02:16:07;;;;;;;34.50;14.58;;;;;;;19.66;100.00;100125.94;1749856;81;21501;-78
2021/08/19 02:18:33;;;;;;;33.38;15.65;;;;;;;19.65;100.00;100133.91;1754313;81;21113;-81
2021/08/19 02:20:59;;;;;;;39.35;18.35;;;;;;;19.62;100.00;100125.77;1754351;81;20874;-81
2021/08/19 02:23:25;;;;;;;41.23;17.87;;;;;;;19.61;100.00;100128.25;1754240;81;21052;-81
2021/08/19 02:25:51;;;;;;;42.15;18.92;;;;;;;19.60;100.00;100125.30;1754360;81;21432;-81
2021/08/19 02:28:17;;;;;;;41.60;19.95;;;;;;;19.58;100.00;100126.75;1754537;81;20941;-78
2021/08/19 02:30:43;;;;;;;39.45;17.85;;;;;;;19.57;100.00;100133.37;1754392;81;21155;-81
2021/08/19 02:33:09;;;;;;;31.68;15.32;;;;;;;19.52;100.00;100135.14;1754055;81;20882;-82
2021/08/19 02:35:34;;;;;;;40.10;17.35;;;;;;;19.50;100.00;100135.23;1754594;80;20968;-81
2021/08/19 02:38:06;;;;;;;37.30;17.12;;;;;;;19.47;100.00;100128.52;1754294;81;21923;-81
2021/08/19 02:40:31;;;;;;;35.05;16.37;;;;;;;19.44;100.00;100127.82;1753750;81;21539;-80
2021/08/19 02:42:57;;;;;;;33.45;15.80;;;;;;;19.44;100.00;100124.26;1754379;81;21139;-83
2021/08/19 02:45:23;;;;;;;32.13;15.53;;;;;;;19.43;100.00;100130.87;1754365;81;20881;-81
2021/08/19 02:47:48;;;;;;;34.27;15.95;;;;;;;19.37;100.00;100135.72;1754298;80;21035;-81
2021/08/19 02:50:16;;;;;;;33.08;16.30;;;;;;;19.30;100.00;100138.19;1754317;81;20870;-85
2021/08/19 02:52:42;;;;;;;35.15;15.63;;;;;;;19.28;100.00;100142.59;1754045;80;21002;-80
2021/08/19 02:55:10;;;;;;;35.48;16.70;;;;;;;19.26;100.00;100151.68;1754717;80;21314;-80
2021/08/19 02:57:36;;;;;;;43.73;17.80;;;;;;;19.26;100.00;100152.25;1754647;81;21016;-77
2021/08/19 03:00:04;;;;;;;34.10;16.17;;;;;;;19.22;100.00;100147.22;1754088;81;20862;-80
2021/08/19 03:02:30;;;;;;;32.98;15.85;;;;;;;19.22;100.00;100152.11;1754577;81;21001;-81
2021/08/19 03:04:56;;;;;;;38.67;15.85;;;;;;;19.25;100.00;100146.56;1750533;81;20897;-80
2021/08/19 03:07:23;;;;;;;42.15;16.35;;;;;;;19.30;100.00;100149.11;1751003;81;21559;-82
2021/08/19 03:09:50;;;;;;;34.90;16.87;;;;;;;19.33;100.00;100147.09;1754138;81;21532;-82
2021/08/19 03:12:16;;;;;;;41.37;16.70;;;;;;;19.36;100.00;100146.42;1754292;80;20938;-81
2021/08/19 03:14:42;;;;;;;36.65;15.35;;;;;;;19.45;100.00;100147.17;1753812;81;21496;-82
2021/08/19 03:17:09;;;;;;;35.85;16.40;;;;;;;19.55;100.00;100152.02;1754028;81;21131;-82
2021/08/19 03:19:36;;;;;;;37.88;16.85;;;;;;;19.62;100.00;100150.38;1754276;80;21142;-86
2021/08/19 03:22:03;;;;;;;35.60;17.02;;;;;;;19.73;100.00;100155.70;1754100;80;21029;-82
2021/08/19 03:24:30;;;;;;;32.78;15.20;;;;;;;19.82;100.00;100158.94;1754432;81;21063;-81
2021/08/19 03:26:57;;;;;;;34.75;15.43;;;;;;;19.94;100.00;100152.17;1751933;80;21428;-82
2021/08/19 03:29:24;;;;;;;38.55;16.62;;;;;;;20.08;100.00;100159.55;1751858;81;21013;-80
2021/08/19 03:31:51;;;;;;;38.83;17.07;;;;;;;20.21;100.00;100156.33;1752274;81;21060;-81
2021/08/19 03:34:17;;;;;;;36.58;17.02;;;;;;;20.32;100.00;100160.22;1754323;81;21068;-80
2021/08/19 03:36:53;;;;;;;;;;;;;;;;;;;;;
2021/08/19 03:39:11;;;;;;;34.15;16.10;;;;;;;20.57;100.00;100157.62;1694504;82;21454;-81
2021/08/19 03:41:37;;;;;;;37.35;16.77;;;;;;;20.69;100.00;100156.28;1694350;84;20913;-81
2021/08/19 03:44:03;;;;;;;34.58;15.25;;;;;;;20.86;100.00;100155.30;1694095;84;21765;-81
2021/08/19 03:46:29;;;;;;;31.45;15.45;;;;;;;21.06;100.00;100146.19;1694149;84;21059;-81
2021/08/19 03:48:56;;;;;;;34.35;16.12;;;;;;;21.40;100.00;100149.64;1694375;84;21028;-78
2021/08/19 03:51:22;;;;;;;32.70;15.18;;;;;;;21.74;100.00;100151.09;1694144;84;21062;-85
2021/08/19 03:53:53;;;;;;;34.53;14.70;;;;;;;22.10;100.00;100153.50;1694417;84;20897;-82
2021/08/19 03:56:15;;;;;;;31.20;14.63;;;;;;;22.50;100.00;100155.45;1690585;84;20992;-82
2021/08/19 03:58:41;;;;;;;28.42;14.20;;;;;;;22.92;100.00;100156.34;1694507;84;20896;-83
2021/08/19 04:01:07;;;;;;;31.10;14.25;;;;;;;23.34;100.00;100151.69;1694489;84;21010;-80
2021/08/19 04:03:33;;;;;;;26.80;13.58;;;;;;;23.79;100.00;100158.03;1694651;84;20865;-83
2021/08/19 04:05:59;;;;;;;25.15;13.65;;;;;;;24.23;100.00;100154.23;1694494;84;21642;-81
2021/08/19 04:08:25;;;;;;;31.62;13.48;;;;;;;24.56;100.00;100159.25;1694647;84;20963;-83
2021/08/19 04:10:50;;;;;;;26.55;13.95;;;;;;;24.94;100.00;100161.67;1694373;84;20885;-85
2021/08/19 04:13:18;;;;;;;28.05;13.68;;;;;;;25.30;100.00;100157.58;1694474;84;21001;-83
2021/08/19 04:15:44;;;;;;;28.52;13.30;;;;;;;25.76;100.00;100152.52;1654391;86;21042;-86
2021/08/19 04:18:13;;;;;;;34.23;13.40;;;;;;;26.14;100.00;100160.33;1654500;86;21074;-83
2021/08/19 04:20:38;;;;;;;26.45;12.85;;;;;;;26.44;100.00;100158.34;1653777;86;21138;-82
2021/08/19 04:23:04;;;;;;;28.85;13.30;;;;;;;26.82;100.00;100158.32;1654426;86;20968;-89
2021/08/19 04:25:30;;;;;;;28.30;13.62;;;;;;;27.11;100.00;100155.22;1654229;86;20991;-83
2021/08/19 04:27:56;;;;;;;25.88;13.55;;;;;;;27.46;100.00;100160.84;1654807;86;21612;-79
2021/08/19 04:30:22;;;;;;;24.92;12.88;;;;;;;27.79;100.00;100159.88;1654621;86;21043;-87
2021/08/19 04:32:48;;;;;;;26.12;13.75;;;;;;;28.17;100.00;100156.30;1654773;86;21527;-84
2021/08/19 04:35:15;;;;;;;30.27;12.63;;;;;;;28.60;100.00;100157.84;1623200;85;20876;-89
2021/08/19 04:37:40;;;;;;;24.40;13.72;;;;;;;28.83;100.00;100167.19;1689137;85;21464;-84
2021/08/19 04:40:08;;;;;;;26.97;13.38;;;;;;;29.07;100.00;100162.27;1679781;85;20928;-81
2021/08/19 04:42:34;;;;;;;30.45;14.13;;;;;;;29.45;100.00;100171.58;1658574;84;21125;-83
2021/08/19 04:45:00;;;;;;;26.55;13.83;;;;;;;29.76;99.66;100168.55;1658910;84;21262;-83
2021/08/19 04:47:26;;;;;;;24.98;13.32;;;;;;;29.97;100.00;100177.41;1658889;86;21099;-83
2021/08/19 04:49:52;;;;;;;23.47;13.18;;;;;;;30.48;94.65;100178.81;1658699;86;20998;-84
2021/08/19 04:52:18;;;;;;;25.57;12.33;;;;;;;30.94;88.51;100177.14;1658475;84;20989;-84
2021/08/19 04:54:43;;;;;;;24.43;12.53;;;;;;;31.69;79.99;100174.30;1656731;86;20935;-83
2021/08/19 04:57:09;;;;;;;22.73;12.43;;;;;;;31.69;79.99;100174.30;1636104;86;22605;-84
2021/08/19 04:59:35;;;;;;;22.10;12.00;;;;;;;32.01;77.34;100176.74;1656978;85;20975;-81
2021/08/19 05:02:01;;;;;;;28.67;13.90;;;;;;;32.15;70.08;100171.59;1654271;86;21666;-81
2021/08/19 05:04:27;;;;;;;25.32;12.47;;;;;;;32.19;68.28;100168.15;1650918;85;21080;-81
2021/08/19 05:06:53;;;;;;;23.22;12.47;;;;;;;32.38;69.36;100168.08;1669931;83;21097;-82
2021/08/19 05:09:19;;;;;;;22.07;12.10;;;;;;;32.68;65.41;100158.11;1640322;86;21073;-81
2021/08/19 05:11:47;;;;;;;21.20;12.47;;;;;;;32.75;61.73;100158.80;1676418;80;20914;-82
2021/08/19 05:14:13;;;;;;;25.00;12.28;;;;;;;32.63;62.47;100163.58;1779723;78;21541;-82
2021/08/19 05:16:39;;;;;;;26.97;13.35;;;;;;;32.85;62.71;100157.05;1821923;78;20849;-83
2021/08/19 05:19:05;;;;;;;22.25;12.47;;;;;;;33.42;60.80;100153.94;1819511;77;21699;-79
2021/08/19 05:21:34;;;;;;;27.05;12.85;;;;;;;33.87;57.63;100152.87;1813550;77;21068;-84
2021/08/19 05:24:00;;;;;;;29.40;13.22;;;;;;;34.24;56.08;100150.13;1796434;77;20953;-82
2021/08/19 05:26:29;;;;;;;20.55;11.70;;;;;;;34.59;53.08;100159.16;1811506;77;20963;-82
2021/08/19 05:28:55;;;;;;;22.10;12.35;;;;;;;34.38;51.72;100156.19;1798091;77;21000;-86
2021/08/19 05:31:20;;;;;;;25.30;12.70;;;;;;;34.70;52.25;100147.70;1798352;77;21378;-83
2021/08/19 05:33:49;;;;;;;23.87;13.00;;;;;;;35.20;49.57;100143.67;1807689;77;20926;-81
2021/08/19 05:36:15;;;;;;;21.85;12.65;;;;;;;35.38;49.13;100149.42;1705579;82;21024;-84
2021/08/19 05:38:41;;;;;;;32.58;13.50;;;;;;;35.51;48.07;100153.70;1704768;82;21028;-87
2021/08/19 05:41:14;;;;;;;23.83;13.30;;;;;;;35.46;47.35;100161.40;1683518;84;20905;-81
2021/08/19 05:43:40;;;;;;;22.00;13.18;;;;;;;35.87;46.69;100161.91;1676341;85;21067;-80
2021/08/19 05:46:08;;;;;;;20.65;13.03;;;;;;;36.23;45.55;100169.31;1680102;82;21708;-80
2021/08/19 05:48:34;;;;;;;25.57;13.93;;;;;;;36.42;45.17;100169.73;1688539;82;21048;-82
2021/08/19 05:51:00;;;;;;;23.25;13.28;;;;;;;36.61;44.65;100178.56;1694530;82;21127;-79
2021/08/19 05:53:26;;;;;;;24.43;12.45;;;;;;;37.00;43.10;100173.71;1689326;82;21045;-80
2021/08/19 05:55:52;;;;;;;27.62;14.00;;;;;;;37.35;42.24;100167.34;1695711;82;21005;-78
2021/08/19 05:58:18;;;;;;;21.82;13.15;;;;;;;37.63;40.76;100169.17;1698103;82;21152;-81
2021/08/19 06:00:48;;;;;;;24.27;14.53;;;;;;;37.84;40.28;100175.26;1695177;82;20957;-81
2021/08/19 06:03:16;;;;;;;22.07;12.40;;;;;;;38.07;39.68;100170.59;1694003;82;21052;-82
2021/08/19 06:05:42;;;;;;;21.95;13.28;;;;;;;38.26;39.18;100163.64;1685929;82;21208;-80
2021/08/19 06:08:08;;;;;;;24.82;13.85;;;;;;;38.30;38.78;100163.67;1683693;82;21127;-80
2021/08/19 06:10:34;;;;;;;23.87;13.35;;;;;;;38.46;38.60;100164.70;1688597;82;21106;-77
2021/08/19 06:13:00;;;;;;;20.92;13.00;;;;;;;38.89;37.62;100169.42;1701411;82;21009;-80
2021/08/19 06:15:26;;;;;;;27.25;14.43;;;;;;;39.08;37.06;100167.41;1682707;84;21066;-78
2021/08/19 06:17:52;;;;;;;21.00;13.43;;;;;;;39.20;36.40;100162.87;1676255;85;21020;-85
2021/08/19 06:20:18;;;;;;;26.52;13.62;;;;;;;39.13;36.18;100160.38;1676176;85;21103;-80
2021/08/19 06:22:44;;;;;;;21.07;12.95;;;;;;;39.25;36.29;100158.81;1676227;85;21969;-81
2021/08/19 06:25:11;;;;;;;25.43;13.65;;;;;;;39.50;36.33;100160.55;1676322;85;21060;-81
2021/08/19 06:27:37;;;;;;;20.92;12.03;;;;;;;39.73;35.60;100153.48;1682121;82;21060;-82
2021/08/19 06:30:06;;;;;;;19.42;13.50;;;;;;;40.00;35.34;100153.94;1698517;82;21292;-82
2021/08/19 06:32:32;;;;;;;20.30;13.45;;;;;;;40.40;34.98;100149.44;1748928;79;21052;-85
2021/08/19 06:34:58;;;;;;;26.93;13.95;;;;;;;40.51;34.49;100151.11;1807762;79;21576;-80
2021/08/19 06:37:23;;;;;;;23.98;14.20;;;;;;;40.78;33.79;100158.69;1807850;79;20945;-84
2021/08/19 06:39:49;;;;;;;21.23;13.45;;;;;;;41.20;32.63;100149.31;1821769;77;20862;-82
2021/08/19 06:42:15;;;;;;;20.62;13.28;;;;;;;41.24;32.56;100146.29;1842512;77;20924;-83
2021/08/19 06:44:41;;;;;;;22.58;13.53;;;;;;;41.33;32.32;100143.41;1842683;77;21036;-82
2021/08/19 06:47:07;;;;;;;22.95;14.23;;;;;;;41.47;31.97;100144.08;1842507;77;21960;-81
2021/08/19 06:49:33;;;;;;;25.57;14.50;;;;;;;41.58;31.99;100145.56;1842345;77;21024;-83
2021/08/19 06:52:02;;;;;;;21.05;14.25;;;;;;;41.97;32.01;100144.86;1842409;77;21047;-83
2021/08/19 06:54:30;;;;;;;23.67;14.50;;;;;;;42.35;31.11;100143.19;1842568;77;21083;-87
2021/08/19 06:56:56;;;;;;;23.80;14.03;;;;;;;42.62;30.83;100137.78;1739459;82;21022;-81
2021/08/19 06:59:21;;;;;;;27.30;14.30;;;;;;;42.92;30.26;100144.16;1740339;82;21138;-81
2021/08/19 07:01:47;;;;;;;26.35;15.28;;;;;;;43.02;29.71;100141.95;1740383;82;20936;-83
2021/08/19 07:04:13;;;;;;;27.60;14.90;;;;;;;43.17;29.39;100140.48;1740692;82;20900;-82
2021/08/19 07:06:39;;;;;;;25.57;15.15;;;;;;;43.01;28.81;100138.98;1715809;82;21038;-82
2021/08/19 07:09:05;;;;;;;23.47;16.10;;;;;;;43.00;28.70;100148.75;1740304;82;21034;-86
2021/08/19 07:11:31;;;;;;;24.55;15.63;;;;;;;42.88;28.68;100140.73;1740170;82;21621;-83
2021/08/19 07:13:57;;;;;;;24.20;15.78;;;;;;;42.83;28.75;100145.08;1740345;82;21471;-79
2021/08/19 07:16:23;;;;;;;30.43;15.88;;;;;;;42.88;28.67;100143.58;1740296;82;20880;-82
2021/08/19 07:18:50;;;;;;;32.20;15.80;;;;;;;42.88;28.40;100146.41;1740471;81;20947;-81
2021/08/19 07:21:16;;;;;;;26.60;16.90;;;;;;;42.93;28.49;100147.77;1715611;82;20992;-78
2021/08/19 07:23:42;;;;;;;27.13;16.30;;;;;;;43.10;28.42;100145.28;1740382;82;21096;-82
2021/08/19 07:26:08;;;;;;;24.70;14.40;;;;;;;43.31;28.31;100146.71;1740421;82;20962;-80
2021/08/19 07:28:34;;;;;;;23.65;15.35;;;;;;;43.58;28.14;100139.02;1740427;82;21087;-83
2021/08/19 07:30:59;;;;;;;26.40;15.38;;;;;;;43.80;27.72;100142.70;1740346;82;21585;-82
2021/08/19 07:33:25;;;;;;;32.48;15.88;;;;;;;44.01;27.54;100137.74;1740454;82;20912;-79
2021/08/19 07:35:51;;;;;;;22.80;16.35;;;;;;;43.98;27.11;100138.91;1740574;82;21685;-84
2021/08/19 07:38:18;;;;;;;23.18;15.05;;;;;;;43.96;27.01;100145.72;1740303;80;20900;-80
2021/08/19 07:40:46;;;;;;;29.25;15.65;;;;;;;44.00;26.79;100136.97;1747682;81;21020;-86
2021/08/19 07:43:12;;;;;;;30.43;16.05;;;;;;;43.99;27.01;100140.45;1745457;82;21131;-83
2021/08/19 07:45:42;;;;;;;28.92;15.93;;;;;;;44.36;27.17;100143.20;1744985;82;21607;-79
2021/08/19 07:48:12;;;;;;;25.32;15.50;;;;;;;44.73;26.76;100141.00;1744831;82;22096;-81
2021/08/19 07:50:40;;;;;;;34.50;17.57;;;;;;;44.92;26.23;100135.64;1728265;83;21082;-79
2021/08/19 07:53:07;;;;;;;26.80;16.00;;;;;;;45.03;25.97;100141.38;1607205;87;21158;-79
2021/08/19 07:55:33;;;;;;;23.30;16.67;;;;;;;45.19;25.85;100139.94;1648921;85;21061;-87
2021/08/19 07:58:00;;;;;;;29.27;17.42;;;;;;;45.14;24.68;100138.61;1647028;85;21125;-87
2021/08/19 08:00:31;;;;;;;30.00;18.48;;;;;;;44.97;24.74;100129.98;1643815;87;21103;-88
2021/08/19 08:03:00;;;;;;;27.75;17.90;;;;;;;44.60;25.12;100125.80;1643902;87;21572;-89
2021/08/19 08:05:28;;;;;;;28.80;18.50;;;;;;;44.46;25.57;100123.90;1643078;87;21101;-87
2021/08/19 08:08:06;;;;;;;28.92;17.77;;;;;;;44.56;25.03;100122.39;1643926;87;21029;-85
2021/08/19 08:10:36;;;;;;;26.75;17.27;;;;;;;44.41;25.33;100123.98;1614145;88;21089;-88
2021/08/19 08:13:01;;;;;;;28.75;16.12;;;;;;;44.55;25.27;100123.69;1581286;89;21350;-88
2021/08/19 08:15:27;;;;;;;24.52;15.68;;;;;;;44.65;25.30;100115.07;1580765;90;21066;-86
2021/08/19 08:18:00;;;;;;;28.73;15.85;;;;;;;44.47;25.38;100119.77;1613576;87;21069;-84
2021/08/19 08:20:26;;;;;;;28.52;16.07;;;;;;;44.38;25.07;100114.41;1581001;90;21018;-87
2021/08/19 08:22:53;;;;;;;31.25;16.37;;;;;;;44.23;25.21;100110.92;1581418;90;21569;-88
2021/08/19 08:25:19;;;;;;;26.57;17.15;;;;;;;44.10;25.38;100112.78;1581276;90;21652;-87
2021/08/19 08:28:05;;;;;;;29.42;15.98;;;;;;;44.36;24.23;100108.47;1575345;90;21103;-85
2021/08/19 08:30:33;;;;;;;36.65;15.10;;;;;;;44.33;24.87;100099.55;1561938;90;21092;-82
2021/08/19 08:32:59;;;;;;;23.92;15.20;;;;;;;43.70;24.89;100107.39;1581547;90;21049;-85
2021/08/19 08:35:59;;;;;;;;;;;;;;;;;;;;;
2021/08/19 08:38:18;;;;;;;24.47;14.75;;;;;;;43.28;26.04;100104.50;1572392;89;21527;-85
2021/08/19 08:40:49;;;;;;;25.53;15.80;;;;;;;43.66;25.15;100108.27;1574891;90;21128;-83
2021/08/19 08:43:20;;;;;;;36.17;15.70;;;;;;;43.88;25.09;100107.66;1569633;91;21112;-88
2021/08/19 08:45:47;;;;;;;32.05;14.98;;;;;;;43.79;25.16;100103.59;1570095;90;21331;-85
2021/08/19 08:48:17;;;;;;;28.05;15.72;;;;;;;43.99;25.23;100102.75;1579965;90;21128;-88
2021/08/19 08:50:48;;;;;;;27.27;15.53;;;;;;;43.92;25.23;100096.88;1601283;89;21851;-84
2021/08/19 08:53:15;;;;;;;;;;;;;;;44.12;24.96;100095.22;1611026;89;20985;-87
2021/08/19 08:55:43;;;;;;;20.92;14.60;;;;;;;43.92;25.35;100094.68;1609050;89;20196;-80
2021/08/19 08:58:10;;;;;;;26.97;14.03;;;;;;;43.44;25.61;100099.50;1608781;89;21100;-88
2021/08/19 09:00:45;;;;;;;23.73;14.45;;;;;;;43.40;25.98;100096.89;1608930;89;21111;-85
2021/08/19 09:03:14;;;;;;;29.02;14.25;;;;;;;43.74;25.53;100095.18;1609102;89;21956;-83
2021/08/19 09:05:49;;;;;;;23.83;14.05;;;;;;;43.61;25.85;100102.53;1557923;92;21136;-88
2021/08/19 09:08:22;;;;;;;24.32;14.47;;;;;;;43.14;26.28;100094.67;1578330;90;21089;-88
2021/08/19 09:10:50;;;;;;;26.02;14.07;;;;;;;43.09;26.50;100098.97;1578373;91;20998;-86
2021/08/19 09:13:21;;;;;;;29.45;13.35;;;;;;;43.25;26.34;100088.48;1562708;87;21096;-93
2021/08/19 09:15:48;;;;;;;30.00;15.13;;;;;;;43.15;26.97;100097.00;1582901;89;21206;-89
2021/08/19 09:18:33;;;;;;;22.55;13.13;;;;;;;43.06;25.84;100089.39;1603549;89;21094;-86
2021/08/19 09:21:00;;;;;;;28.47;14.15;;;;;;;42.78;26.87;100086.88;1580725;90;21949;-85
2021/08/19 09:23:27;;;;;;;26.10;14.70;;;;;;;42.39;26.39;100088.53;1580458;90;21028;-85
2021/08/19 09:25:53;;;;;;;30.02;13.62;;;;;;;41.37;27.47;100081.76;1604801;89;21152;-85
2021/08/19 09:28:23;;;;;;;27.50;14.07;;;;;;;41.31;27.86;100080.23;1604508;89;21169;-85
2021/08/19 09:30:58;;;;;;;33.58;14.03;;;;;;;41.48;27.88;100089.71;1604637;89;21533;-84
2021/08/19 09:33:27;;;;;;;28.00;13.88;;;;;;;41.66;28.02;100075.36;1597067;89;21195;-83
2021/08/19 09:35:56;;;;;;;25.55;13.30;;;;;;;41.89;27.91;100076.55;1625894;86;21046;-90
2021/08/19 09:38:27;;;;;;;27.62;14.38;;;;;;;41.91;27.44;100076.81;1626130;88;21418;-85
2021/08/19 09:41:12;;;;;;;34.25;14.15;;;;;;;41.96;27.51;100071.89;1659334;85;21097;-86
2021/08/19 09:43:48;;;;;;;31.70;14.63;;;;;;;42.01;27.94;100069.02;1660818;86;21010;-85
2021/08/19 09:46:35;;;;;;;33.90;14.73;;;;;;;41.87;28.14;100067.73;1656228;86;21569;-81
2021/08/19 09:49:20;;;;;;;23.67;13.95;;;;;;;41.87;27.83;100069.78;1657962;86;21499;-83
2021/08/19 09:52:01;;;;;;;28.77;13.62;;;;;;;41.36;28.22;100065.26;1658130;86;21612;-82
2021/08/19 09:54:36;;;;;;;27.60;14.13;;;;;;;41.38;28.39;100073.41;1658956;86;21269;-84
2021/08/19 09:57:04;;;;;;;29.12;14.00;;;;;;;41.64;27.69;100065.16;1658864;86;21074;-82
2021/08/19 09:59:36;;;;;;;26.42;13.70;;;;;;;41.52;28.18;100066.23;1658663;86;21033;-86
2021/08/19 10:02:06;;;;;;;30.68;14.30;;;;;;;41.41;28.14;100063.17;1668273;84;21138;-80
2021/08/19 10:04:33;;;;;;;29.72;13.45;;;;;;;41.31;28.19;100062.48;1683541;85;21601;-83
2021/08/19 10:07:02;;;;;;;36.25;14.23;;;;;;;40.73;29.00;100059.01;1660449;85;21137;-81
2021/08/19 10:09:28;;;;;;;30.90;14.33;;;;;;;40.62;29.36;100071.48;1682873;85;21602;-78
2021/08/19 10:11:57;;;;;;;38.40;15.25;;;;;;;40.73;29.69;100061.84;1714628;81;21067;-81
2021/08/19 10:14:27;;;;;;;26.70;13.75;;;;;;;41.00;29.24;100065.08;1715312;83;21054;-84
2021/08/19 10:16:55;;;;;;;27.93;14.80;;;;;;;40.91;29.26;100041.77;1719921;83;21151;-83
2021/08/19 10:19:32;;;;;;;29.42;14.20;;;;;;;40.92;29.67;100053.20;1710919;82;21342;-82
2021/08/19 10:22:16;;;;;;;27.35;13.85;;;;;;;40.92;29.67;100053.20;1739501;81;21058;-83
2021/08/19 10:24:47;;;;;;;31.73;13.95;;;;;;;40.76;29.56;100055.22;1664129;86;21101;-81
2021/08/19 10:27:26;;;;;;;30.63;14.63;;;;;;;40.71;29.27;100050.86;1661759;86;21585;-84
2021/08/19 10:30:03;;;;;;;26.80;14.18;;;;;;;40.71;29.27;100050.86;1619428;86;21842;-79
2021/08/19 10:32:37;;;;;;;30.88;14.53;;;;;;;40.18;30.14;100061.52;1630138;86;21672;-82
2021/08/19 10:35:12;;;;;;;33.42;14.05;;;;;;;39.87;30.60;100062.41;1608055;88;21075;-82
2021/08/19 10:38:01;;;;;;;41.13;15.35;;;;;;;39.66;30.17;100056.48;1608833;88;21055;-82
2021/08/19 10:40:33;;;;;;;33.23;14.93;;;;;;;39.36;30.53;100056.86;1608009;89;21545;-81
2021/08/19 10:43:04;;;;;;;32.63;12.88;;;;;;;39.12;30.73;100051.67;1606011;88;21544;-78
2021/08/19 10:45:42;;;;;;;31.77;14.15;;;;;;;39.08;30.71;100050.42;1591141;90;22188;-85
2021/08/19 10:48:13;;;;;;;31.15;13.80;;;;;;;39.01;31.03;100048.71;1591176;90;21651;-81
2021/08/19 10:50:42;;;;;;;30.25;15.08;;;;;;;38.97;30.55;100045.88;1601682;88;21088;-82
2021/08/19 10:53:14;;;;;;;36.20;15.58;;;;;;;38.66;31.02;100036.92;1617210;88;21080;-85
2021/08/19 10:55:42;;;;;;;;;;;;;;;38.22;32.97;100030.08;1619777;88;21131;-89
2021/08/19 10:58:36;;;;;;;33.33;14.83;;;;;;;38.22;32.68;100035.70;1617262;88;21170;-82
2021/08/19 11:01:23;;;;;;;35.43;14.35;;;;;;;38.24;32.63;100026.78;1584474;90;21117;-78
2021/08/19 11:03:53;;;;;;;37.28;14.13;;;;;;;38.43;32.57;100027.66;1584581;90;21080;-83
2021/08/19 11:06:27;;;;;;;29.37;14.93;;;;;;;38.43;32.22;100027.02;1584230;90;21044;-82
2021/08/19 11:08:58;;;;;;;33.98;14.73;;;;;;;38.40;32.89;100021.70;1537340;91;21565;-81
2021/08/19 11:11:37;;;;;;;36.23;14.33;;;;;;;38.45;32.03;100020.94;1488020;95;21231;-82
2021/08/19 11:14:20;;;;;;;33.23;15.68;;;;;;;38.39;32.41;100024.96;1545475;91;21091;-82